Time;durP1;ratioP1;P1;durP2;ratioP2;P2;SDS_P1;SDS_P2;PMS_P1;PMS_P2;Temp;Humidity;BMP_temperature;BMP_pressure;BME280_temperature;BME280_humidity;BME280_pressure;Samples;Min_cycle;Max_cycle;Signal;HPM_P1;HPM_P2
2023/12/08 00:01:59;;;;;;;270.20;84.40;;;;;;;-1.15;95.03;98896.89;435267;1253;107703;-39
2023/12/08 00:12:04;;;;;;;220.70;74.70;;;;;;;-1.21;95.12;98907.48;435234;1249;99237;-39
2023/12/08 00:22:10;;;;;;;242.90;81.10;;;;;;;-1.18;94.92;98910.12;435384;1253;111360;-39
2023/12/08 00:32:17;;;;;;;217.10;71.30;;;;;;;-1.16;95.01;98902.56;435428;1253;107236;-39
2023/12/08 00:42:23;;;;;;;173.50;63.90;;;;;;;-1.14;95.12;98898.52;435012;1251;489169;-40
2023/12/08 00:52:30;;;;;;;189.30;66.90;;;;;;;-1.20;95.10;98904.45;435340;1253;108643;-39
2023/12/08 01:02:37;;;;;;;175.50;62.60;;;;;;;-1.33;95.21;98902.37;435500;1252;99122;-38
2023/12/08 01:12:45;;;;;;;148.10;52.60;;;;;;;-1.41;95.12;98903.33;435367;1253;110643;-40
2023/12/08 01:22:53;;;;;;;165.90;56.20;;;;;;;-1.41;95.33;98912.48;435318;1249;108240;-39
2023/12/08 01:33:01;;;;;;;168.50;59.10;;;;;;;-1.37;95.60;98914.01;435423;1253;99176;-40
2023/12/08 01:43:10;;;;;;;197.50;68.10;;;;;;;-1.27;95.53;98908.40;435350;1253;106948;-40
2023/12/08 01:53:17;;;;;;;209.60;72.00;;;;;;;-1.36;95.69;98897.64;435503;1253;98599;-39
2023/12/08 02:03:26;;;;;;;212.20;69.30;;;;;;;-1.40;95.78;98903.83;435442;1253;99333;-40
2023/12/08 02:13:34;;;;;;;160.10;56.30;;;;;;;-1.44;95.95;98903.44;435513;1253;111363;-39
2023/12/08 02:23:41;;;;;;;176.90;62.50;;;;;;;-1.47;95.94;98899.75;436514;1246;108674;-39
2023/12/08 02:33:53;;;;;;;174.30;60.60;;;;;;;-1.45;95.70;98897.34;436253;1254;99858;-39
2023/12/08 02:44:00;;;;;;;165.30;63.70;;;;;;;-1.32;95.62;98894.23;436503;1253;112191;-40
2023/12/08 02:54:07;;;;;;;139.80;55.10;;;;;;;-1.25;95.72;98883.23;436208;1253;109331;-39
2023/12/08 03:04:13;;;;;;;213.10;68.50;;;;;;;-1.19;95.93;98880.15;436343;1248;98907;-39
2023/12/08 03:14:20;;;;;;;210.80;69.00;;;;;;;-1.29;95.70;98887.06;436295;1254;111971;-39
2023/12/08 03:34:34;;;;;;;216.50;64.80;;;;;;;-1.41;95.86;98878.06;436681;1248;99204;-38
2023/12/08 03:44:41;;;;;;;188.20;66.20;;;;;;;-1.36;95.79;98867.58;436628;1254;108235;-40
2023/12/08 03:54:48;;;;;;;176.40;59.80;;;;;;;-1.25;96.08;98847.10;436727;1248;99194;-41
2023/12/08 04:04:55;;;;;;;235.00;69.50;;;;;;;-1.16;96.17;98841.27;436842;1253;111403;-40
2023/12/08 04:15:01;;;;;;;207.20;69.80;;;;;;;-1.23;96.21;98833.08;436742;1248;108003;-39
2023/12/08 04:25:09;;;;;;;190.80;65.60;;;;;;;-1.29;96.42;98824.31;436656;1261;98024;-39
2023/12/08 04:35:17;;;;;;;183.70;63.80;;;;;;;-1.27;96.18;98820.86;436763;1252;111704;-39
2023/12/08 04:45:23;;;;;;;178.50;61.80;;;;;;;-1.18;96.11;98810.35;436947;1254;108348;-40
2023/12/08 04:55:30;;;;;;;171.50;57.40;;;;;;;-1.08;96.22;98808.42;436846;1248;99223;-40
2023/12/08 05:05:42;;;;;;;207.60;66.50;;;;;;;-1.04;96.21;98817.42;437043;1247;108564;-40
2023/12/08 05:15:49;;;;;;;210.50;67.00;;;;;;;-1.18;96.45;98809.77;437027;1252;99227;-39
2023/12/08 05:25:56;;;;;;;165.50;58.90;;;;;;;-1.26;96.44;98808.96;436803;1251;110816;-38
2023/12/08 05:36:03;;;;;;;156.50;57.10;;;;;;;-1.23;96.44;98826.04;436876;1254;107452;-40
2023/12/08 05:46:13;;;;;;;141.00;52.50;;;;;;;-1.12;96.22;98820.40;436955;1251;99318;-40
2023/12/08 05:56:21;;;;;;;128.70;49.70;;;;;;;-1.06;96.26;98806.82;436681;1251;110861;-40
2023/12/08 06:16:35;;;;;;;145.50;54.40;;;;;;;-1.18;96.43;98799.23;436863;1248;99308;-39
2023/12/08 06:26:43;;;;;;;152.10;52.60;;;;;;;-1.28;96.61;98797.60;436779;1251;110294;-38
2023/12/08 06:36:49;;;;;;;117.50;50.70;;;;;;;-1.26;96.47;98789.48;436629;1247;108502;-40
2023/12/08 06:46:56;;;;;;;108.60;45.00;;;;;;;-1.12;96.49;98809.59;436524;1247;97969;-40
2023/12/08 06:57:03;;;;;;;97.30;40.20;;;;;;;-0.96;96.61;98817.30;436398;1247;111757;-37
2023/12/08 07:07:10;;;;;;;121.80;46.10;;;;;;;-0.86;96.58;98823.55;436441;1251;108120;-40
2023/12/08 07:17:17;;;;;;;116.40;47.70;;;;;;;-0.86;96.60;98828.44;436399;1251;99205;-39
2023/12/08 07:27:24;;;;;;;126.70;49.60;;;;;;;-0.89;96.44;98824.03;436516;1251;110964;-40
2023/12/08 07:37:34;;;;;;;123.80;49.90;;;;;;;-0.85;96.57;98819.52;436536;1251;108438;-39
2023/12/08 07:47:41;;;;;;;97.10;47.20;;;;;;;-0.69;96.37;98818.05;436559;1247;97972;-40
2023/12/08 07:57:49;;;;;;;86.10;40.10;;;;;;;-0.46;96.23;98813.08;436479;1247;109443;-41
2023/12/08 08:07:56;;;;;;;116.60;50.90;;;;;;;-0.24;96.28;98799.87;436635;1251;97991;-39
2023/12/08 08:18:03;;;;;;;108.10;44.80;;;;;;;-0.08;96.55;98799.38;436541;1251;111776;-40
2023/12/08 08:28:10;;;;;;;115.00;47.70;;;;;;;0.21;96.50;98799.44;436515;1251;107444;-40
2023/12/08 08:48:23;;;;;;;64.20;30.80;;;;;;;0.22;95.85;98801.15;436631;1251;108850;-38
2023/12/08 08:58:32;;;;;;;94.70;37.90;;;;;;;0.31;95.83;98788.94;436829;1251;99202;-39
2023/12/08 09:08:39;;;;;;;106.80;40.70;;;;;;;0.31;95.97;98776.73;436937;1247;111195;-40
2023/12/08 09:18:45;;;;;;;91.10;38.00;;;;;;;0.40;95.81;98772.81;436802;1247;108494;-42
2023/12/08 09:28:53;;;;;;;75.50;31.90;;;;;;;0.42;95.34;98757.27;436793;1247;99204;-39
2023/12/08 09:39:00;;;;;;;63.00;32.00;;;;;;;0.57;95.45;98755.40;436787;1251;112117;-39
2023/12/08 09:49:13;;;;;;;79.90;35.30;;;;;;;0.55;95.15;98751.15;436598;1247;109282;-38
2023/12/08 10:19:37;;;;;;;68.00;29.90;;;;;;;0.27;93.66;98766.96;436592;1247;99290;-39
2023/12/08 10:29:43;;;;;;;77.40;34.50;;;;;;;0.04;93.89;98767.67;436493;1248;112763;-39
2023/12/08 10:39:52;;;;;;;63.20;26.30;;;;;;;0.03;93.51;98769.35;436386;1251;108890;-39
2023/12/08 10:50:01;;;;;;;49.90;23.90;;;;;;;-0.05;93.08;98749.80;436381;1247;97960;-39
2023/12/08 11:10:18;;;;;;;;;;;;;;;-0.24;93.25;98735.55;436489;1248;108402;-39
2023/12/08 11:20:26;;;;;;;53.40;25.30;;;;;;;-0.21;92.98;98724.98;436542;1251;99208;-40
2023/12/08 11:30:36;;;;;;;56.90;27.00;;;;;;;-0.20;92.64;98717.67;436524;1247;108822;-41
2023/12/08 11:51:00;;;;;;;68.50;31.60;;;;;;;-0.31;92.59;98720.17;436569;1251;110816;-38
2023/12/08 12:01:11;;;;;;;51.80;23.50;;;;;;;-0.25;92.39;98718.89;436607;1251;108736;-40
2023/12/08 12:21:38;;;;;;;59.90;28.60;;;;;;;-0.03;92.65;98692.12;436729;1251;110840;-40
2023/12/08 12:31:45;;;;;;;68.20;29.50;;;;;;;-0.20;92.29;98684.92;436708;1251;108035;-40
2023/12/08 12:41:57;;;;;;;57.80;27.00;;;;;;;-0.33;92.06;98686.35;436578;1248;99231;-41
2023/12/08 12:52:20;;;;;;;67.20;28.90;;;;;;;-0.28;92.15;98691.39;436438;1247;111742;-42
2023/12/08 13:12:35;;;;;;;82.70;37.90;;;;;;;-0.49;92.16;98671.45;436713;1251;99221;-40
2023/12/08 13:22:41;;;;;;;101.80;41.10;;;;;;;-0.66;92.16;98676.53;436853;1251;108060;-41
2023/12/08 13:32:46;;;;;;;79.60;32.60;;;;;;;-0.76;91.94;98669.86;436928;1247;98818;-41
2023/12/08 13:42:54;;;;;;;65.00;30.70;;;;;;;-0.80;92.04;98666.17;436795;1251;111874;-40
2023/12/08 13:53:01;;;;;;;96.10;38.70;;;;;;;-0.90;91.99;98665.13;436818;1251;109046;-40
2023/12/08 14:03:08;;;;;;;96.60;40.60;;;;;;;-1.13;92.09;98658.05;436796;1251;99139;-40
2023/12/08 14:13:15;;;;;;;72.90;31.00;;;;;;;-1.23;92.16;98665.98;436582;1253;112130;-41
2023/12/08 14:23:28;;;;;;;62.00;30.60;;;;;;;-1.36;91.90;98663.54;436655;1247;107140;-40
2023/12/08 14:33:33;;;;;;;89.20;38.20;;;;;;;-1.45;92.18;98659.39;436553;1247;99234;-40
2023/12/08 14:43:42;;;;;;;107.90;43.60;;;;;;;-1.56;92.54;98669.66;436518;1251;107251;-40
2023/12/08 14:53:51;;;;;;;88.50;38.40;;;;;;;-1.65;92.59;98683.55;436559;1247;99212;-40
2023/12/08 15:03:59;;;;;;;76.00;32.80;;;;;;;-1.76;92.27;98689.98;436574;1247;110332;-39
2023/12/08 15:14:03;;;;;;;82.90;32.70;;;;;;;-1.78;92.36;98699.88;436622;1247;107976;-39
2023/12/08 15:24:11;;;;;;;124.30;49.80;;;;;;;-1.70;92.44;98710.77;436523;1247;99202;-40
2023/12/08 15:44:25;;;;;;;116.40;46.30;;;;;;;-1.92;92.76;98706.73;436759;1251;99154;-39
2023/12/08 16:04:43;;;;;;;92.10;39.00;;;;;;;-1.96;92.57;98671.19;436672;1251;107424;-40
2023/12/08 16:14:49;;;;;;;139.10;48.30;;;;;;;-1.97;92.68;98669.17;436665;1247;99227;-40
2023/12/08 16:24:57;;;;;;;133.20;45.90;;;;;;;-2.07;93.03;98669.33;436867;1247;107534;-41
2023/12/08 16:35:04;;;;;;;118.20;43.00;;;;;;;-2.24;92.78;98677.52;436761;1248;99224;-40
2023/12/08 16:55:15;;;;;;;89.50;41.60;;;;;;;-2.35;92.84;98692.46;436746;1247;107459;-39
2023/12/08 17:05:21;;;;;;;94.10;38.50;;;;;;;-2.32;93.11;98702.86;436863;1247;99239;-40
2023/12/08 17:15:29;;;;;;;109.40;42.10;;;;;;;-2.37;93.14;98703.63;437053;1251;107890;-39
2023/12/08 17:25:35;;;;;;;87.70;35.00;;;;;;;-2.57;93.31;98707.13;436917;1247;99224;-40
2023/12/08 17:45:51;;;;;;;85.20;34.10;;;;;;;-2.56;93.24;98718.94;436877;1247;107358;-39
2023/12/08 18:06:04;;;;;;;116.20;44.70;;;;;;;-2.79;93.61;98707.78;436848;1251;111589;-40
2023/12/08 18:16:20;;;;;;;83.60;34.10;;;;;;;-2.84;93.70;98707.55;436705;1247;107311;-40
2023/12/08 18:46:41;;;;;;;109.60;44.80;;;;;;;-2.68;93.79;98699.84;436859;1247;107621;-40
2023/12/08 19:06:52;;;;;;;95.70;37.80;;;;;;;-2.95;93.98;98708.58;436794;1252;98043;-39
2023/12/08 19:16:58;;;;;;;78.20;32.20;;;;;;;-2.89;94.07;98711.52;436797;1251;108031;-40
2023/12/08 19:27:06;;;;;;;68.30;32.60;;;;;;;-2.93;94.14;98717.75;436919;1248;98283;-39
2023/12/08 19:37:15;;;;;;;109.60;43.10;;;;;;;-3.00;94.28;98710.31;436943;1248;107922;-40
2023/12/08 19:47:22;;;;;;;92.50;37.40;;;;;;;-3.18;94.55;98707.06;436894;1253;99231;-40
2023/12/08 19:57:30;;;;;;;95.50;39.60;;;;;;;-3.10;94.51;98704.42;437273;1248;110820;-48
2023/12/08 20:07:38;;;;;;;91.20;39.40;;;;;;;-3.06;94.80;98685.54;437223;1253;106847;-39
2023/12/08 20:17:46;;;;;;;122.70;46.40;;;;;;;-3.05;94.67;98674.05;437789;1247;99198;-40
2023/12/08 20:27:54;;;;;;;131.10;51.70;;;;;;;-3.11;94.86;98676.77;437116;1253;107431;-40
2023/12/08 20:58:12;;;;;;;87.30;39.60;;;;;;;-3.05;95.05;98678.70;437226;1252;107052;-40
2023/12/08 21:18:26;;;;;;;106.40;43.10;;;;;;;-3.13;95.22;98696.92;437099;1253;110921;-40
2023/12/08 21:38:40;;;;;;;77.70;33.40;;;;;;;-3.12;95.38;98693.05;436998;1254;99317;-40
2023/12/08 21:48:47;;;;;;;101.10;40.10;;;;;;;-3.11;95.64;98693.16;437080;1254;112124;-40
2023/12/08 21:58:55;;;;;;;109.70;45.00;;;;;;;-3.14;95.78;98683.08;437024;1253;106536;-41
2023/12/08 22:09:02;;;;;;;95.70;36.60;;;;;;;-3.19;95.86;98686.85;437574;1250;99205;-40
2023/12/08 22:29:17;;;;;;;85.00;33.60;;;;;;;-3.13;96.17;98669.23;437395;1250;98813;-40
2023/12/08 22:39:23;;;;;;;77.40;31.70;;;;;;;-3.08;96.17;98665.31;437442;1250;110726;-41
2023/12/08 22:49:30;;;;;;;96.00;38.20;;;;;;;-3.07;96.08;98670.72;437441;1250;109299;-40
2023/12/08 22:59:40;;;;;;;102.30;39.40;;;;;;;-3.18;96.17;98668.44;437715;1250;97946;-41
2023/12/08 23:09:47;;;;;;;87.90;35.40;;;;;;;-3.12;96.23;98666.05;437289;1260;112036;-39
2023/12/08 23:19:53;;;;;;;72.30;31.60;;;;;;;-3.11;96.29;98664.48;437465;1248;108799;-39
2023/12/08 23:30:00;;;;;;;67.40;27.50;;;;;;;-3.02;96.40;98666.84;437489;1250;99304;-40
2023/12/08 23:40:10;;;;;;;97.20;40.50;;;;;;;-3.09;96.45;98672.14;437468;1256;107994;-40
2023/12/08 23:50:17;;;;;;;91.30;37.20;;;;;;;-3.16;96.58;98673.48;437502;1248;118398;-41
